sensor_id;sensor_type;location;lat;lon;timestamp;P1;P4;P2;P0;N10;N4;N25;N1;N05;TS
79335;SPS30;69634;52.122;5.406;2023-09-19T00:00:45;2.12;2.07;1.94;1.69;13.29;13.26;13.25;13.01;10.82;56.71
79335;SPS30;69634;52.122;5.406;2023-09-19T00:03:19;2.23;2.17;2.04;1.79;14.09;14.08;14.04;13.81;11.50;55.93
79335;SPS30;69634;52.122;5.406;2023-09-19T00:05:52;2.37;2.30;2.11;1.79;14.14;14.14;14.09;13.78;11.36;58.00
79335;SPS30;69634;52.122;5.406;2023-09-19T00:08:24;2.48;2.39;2.16;1.84;14.40;14.39;14.34;14.01;11.51;60.14
79335;SPS30;69634;52.122;5.406;2023-09-19T00:10:57;2.17;2.12;1.94;1.64;12.95;12.94;12.89;12.61;10.40;58.81
79335;SPS30;69634;52.122;5.406;2023-09-19T00:13:36;2.32;2.26;2.11;1.85;14.62;14.62;14.58;14.33;11.91;57.61
79335;SPS30;69634;52.122;5.406;2023-09-19T00:16:09;2.33;2.28;2.16;1.93;15.18;15.16;15.12;14.91;12.44;56.23
79335;SPS30;69634;52.122;5.406;2023-09-19T00:18:42;2.22;2.19;2.10;1.89;14.90;14.89;14.89;14.69;12.31;55.76
79335;SPS30;69634;52.122;5.406;2023-09-19T00:21:16;2.19;2.12;2.04;1.80;14.21;14.20;14.17;13.97;11.69;56.44
79335;SPS30;69634;52.122;5.406;2023-09-19T00:23:49;2.11;2.09;1.96;1.75;13.72;13.72;13.69;13.48;11.26;55.93
79335;SPS30;69634;52.122;5.406;2023-09-19T00:26:22;2.31;2.23;2.09;1.84;14.44;14.43;14.41;14.15;11.77;59.09
79335;SPS30;69634;52.122;5.406;2023-09-19T00:29:00;2.44;2.36;2.24;1.96;15.39;15.38;15.34;15.09;12.55;57.72
79335;SPS30;69634;52.122;5.406;2023-09-19T00:31:36;2.10;2.06;1.96;1.74;13.76;13.75;13.74;13.53;11.32;55.15
79335;SPS30;69634;52.122;5.406;2023-09-19T00:34:08;2.09;2.04;1.94;1.75;13.86;13.86;13.84;13.66;11.44;56.55
79335;SPS30;69634;52.122;5.406;2023-09-19T00:36:42;2.15;2.10;1.99;1.81;14.14;14.14;14.14;13.93;11.68;56.47
79335;SPS30;69634;52.122;5.406;2023-09-19T00:39:14;2.11;2.08;1.98;1.79;14.02;14.01;13.99;13.81;11.56;55.29
79335;SPS30;69634;52.122;5.406;2023-09-19T00:41:47;2.00;1.96;1.91;1.74;13.69;13.68;13.67;13.51;11.37;54.73
79335;SPS30;69634;52.122;5.406;2023-09-19T00:44:23;2.17;2.14;2.06;1.87;14.70;14.68;14.66;14.49;12.16;54.91
79335;SPS30;69634;52.122;5.406;2023-09-19T00:46:55;2.03;2.01;1.96;1.79;14.15;14.14;14.12;13.98;11.80;53.26
79335;SPS30;69634;52.122;5.406;2023-09-19T00:49:30;2.16;2.13;2.06;1.91;14.97;14.97;14.96;14.80;12.48;53.72
79335;SPS30;69634;52.122;5.406;2023-09-19T00:52:05;2.41;2.37;2.26;2.02;15.94;15.93;15.91;15.69;13.14;55.41
79335;SPS30;69634;52.122;5.406;2023-09-19T00:54:39;2.34;2.29;2.18;1.96;15.43;15.42;15.40;15.19;12.71;55.68
79335;SPS30;69634;52.122;5.406;2023-09-19T00:57:12;2.14;2.10;2.01;1.83;14.31;14.30;14.29;14.11;11.84;54.34
79335;SPS30;69634;52.122;5.406;2023-09-19T00:59:49;2.11;2.06;1.95;1.74;13.70;13.69;13.67;13.46;11.25;56.60
79335;SPS30;69634;52.122;5.406;2023-09-19T01:02:26;2.42;2.36;2.21;1.94;15.17;15.16;15.14;14.85;12.36;58.24
79335;SPS30;69634;52.122;5.406;2023-09-19T01:04:59;2.36;2.30;2.13;1.87;14.72;14.72;14.66;14.41;11.98;57.34
79335;SPS30;69634;52.122;5.406;2023-09-19T01:07:33;2.39;2.34;2.19;1.91;15.09;15.07;15.04;14.76;12.29;55.39
79335;SPS30;69634;52.122;5.406;2023-09-19T01:10:08;2.26;2.19;2.08;1.86;14.62;14.59;14.57;14.34;11.99;54.30
79335;SPS30;69634;52.122;5.406;2023-09-19T01:12:46;2.32;2.26;2.14;1.90;14.95;14.95;14.91;14.69;12.28;54.16
79335;SPS30;69634;52.122;5.406;2023-09-19T01:15:32;2.19;2.16;2.04;1.82;14.30;14.30;14.29;14.06;11.77;53.46
79335;SPS30;69634;52.122;5.406;2023-09-19T01:18:16;2.06;2.01;1.95;1.77;13.86;13.83;13.81;13.66;11.46;52.59
79335;SPS30;69634;52.122;5.406;2023-09-19T01:21:00;2.19;2.14;2.08;1.89;14.86;14.86;14.84;14.68;12.33;51.00
79335;SPS30;69634;52.122;5.406;2023-09-19T01:23:48;2.05;2.04;1.99;1.83;14.44;14.43;14.41;14.28;12.04;50.37
79335;SPS30;69634;52.122;5.406;2023-09-19T01:26:56;2.17;2.14;2.06;1.87;14.79;14.79;14.76;14.59;12.28;50.70
79335;SPS30;69634;52.122;5.406;2023-09-19T01:29:46;2.23;2.21;2.14;1.98;15.48;15.47;15.44;15.29;12.86;50.64
79335;SPS30;69634;52.122;5.406;2023-09-19T01:32:24;1.95;1.91;1.89;1.75;13.69;13.69;13.69;13.54;11.44;51.39
79335;SPS30;69634;52.122;5.406;2023-09-19T01:34:57;2.22;2.20;2.14;1.98;15.49;15.46;15.46;15.31;12.92;52.42
79335;SPS30;69634;52.122;5.406;2023-09-19T01:37:31;2.29;2.28;2.26;2.12;16.80;16.80;16.79;16.66;14.14;48.90
79335;SPS30;69634;52.122;5.406;2023-09-19T01:40:06;2.34;2.32;2.29;2.14;16.76;16.76;16.74;16.62;14.06;49.11
79335;SPS30;69634;52.122;5.406;2023-09-19T01:42:45;2.19;2.19;2.18;2.09;16.39;16.38;16.38;16.29;13.85;48.41
79335;SPS30;69634;52.122;5.406;2023-09-19T01:45:26;2.17;2.17;2.16;2.07;16.30;16.30;16.28;16.20;13.76;48.36
79335;SPS30;69634;52.122;5.406;2023-09-19T01:48:16;2.54;2.51;2.51;2.36;18.54;18.54;18.54;18.42;15.61;49.71
79335;SPS30;69634;52.122;5.406;2023-09-19T01:50:59;2.51;2.51;2.46;2.31;18.16;18.16;18.15;18.00;15.24;49.35
79335;SPS30;69634;52.122;5.406;2023-09-19T01:56:31;2.27;2.27;2.24;2.14;16.86;16.86;16.86;16.76;14.23;48.64
79335;SPS30;69634;52.122;5.406;2023-09-19T01:59:10;2.69;2.66;2.64;2.48;19.56;19.56;19.55;19.43;16.48;48.64
79335;SPS30;69634;52.122;5.406;2023-09-19T02:01:49;2.68;2.66;2.65;2.49;19.69;19.68;19.67;19.55;16.59;48.78
79335;SPS30;69634;52.122;5.406;2023-09-19T02:04:26;2.73;2.69;2.61;2.36;18.64;18.64;18.63;18.43;15.49;50.80
79335;SPS30;69634;52.122;5.406;2023-09-19T02:06:59;2.94;2.91;2.81;2.56;20.14;20.14;20.11;19.87;16.74;52.10
79335;SPS30;69634;52.122;5.406;2023-09-19T02:09:33;2.91;2.89;2.79;2.54;20.01;20.01;19.96;19.75;16.61;50.61
79335;SPS30;69634;52.122;5.406;2023-09-19T02:12:10;2.59;2.55;2.49;2.29;17.94;17.93;17.91;17.74;14.92;50.81
79335;SPS30;69634;52.122;5.406;2023-09-19T02:14:43;2.83;2.78;2.64;2.38;18.71;18.71;18.68;18.42;15.44;53.06
79335;SPS30;69634;52.122;5.406;2023-09-19T02:17:15;2.98;2.92;2.78;2.49;19.53;19.52;19.49;19.19;16.06;52.72
79335;SPS30;69634;52.122;5.406;2023-09-19T02:19:50;2.73;2.69;2.57;2.33;18.34;18.33;18.29;18.09;15.18;54.10
79335;SPS30;69634;52.122;5.406;2023-09-19T02:22:22;3.07;3.01;2.86;2.58;20.26;20.25;20.21;19.92;16.69;55.20
79335;SPS30;69634;52.122;5.406;2023-09-19T02:24:55;2.72;2.68;2.58;2.35;18.44;18.41;18.39;18.18;15.28;55.04
79335;SPS30;69634;52.122;5.406;2023-09-19T02:27:29;3.20;3.12;2.94;2.61;20.64;20.64;20.59;20.28;16.92;57.89
79335;SPS30;69634;52.122;5.406;2023-09-19T02:30:01;3.11;3.01;2.77;2.35;18.52;18.51;18.46;18.06;14.91;60.16
79335;SPS30;69634;52.122;5.406;2023-09-19T02:32:35;3.58;3.45;3.16;2.69;21.13;21.11;21.04;20.57;16.95;57.29
79335;SPS30;69634;52.122;5.406;2023-09-19T02:35:11;3.24;3.13;2.88;2.47;19.55;19.53;19.49;19.09;15.79;57.28
79335;SPS30;69634;52.122;5.406;2023-09-19T02:37:43;3.19;3.09;2.82;2.39;18.81;18.80;18.74;18.32;15.09;58.94
79335;SPS30;69634;52.122;5.406;2023-09-19T02:40:16;3.21;3.09;2.79;2.33;18.41;18.40;18.34;17.89;14.69;60.11
79335;SPS30;69634;52.122;5.406;2023-09-19T02:42:54;3.55;3.40;3.07;2.59;20.38;20.36;20.29;19.80;16.26;60.99
79335;SPS30;69634;52.122;5.406;2023-09-19T02:45:29;3.48;3.33;3.00;2.49;19.56;19.55;19.46;18.96;15.51;60.29
79335;SPS30;69634;52.122;5.406;2023-09-19T02:48:02;3.59;3.42;3.04;2.46;19.47;19.46;19.37;18.80;15.31;62.52
79335;SPS30;69634;52.122;5.406;2023-09-19T02:50:38;3.34;3.18;2.89;2.39;18.99;18.97;18.91;18.43;15.13;60.66
79335;SPS30;69634;52.122;5.406;2023-09-19T02:53:10;3.36;3.21;2.86;2.34;18.48;18.46;18.39;17.86;14.57;61.23
79335;SPS30;69634;52.122;5.406;2023-09-19T02:55:43;3.46;3.31;2.97;2.44;19.14;19.10;19.04;18.49;15.09;61.46
79335;SPS30;69634;52.122;5.406;2023-09-19T02:58:16;3.75;3.59;3.19;2.61;20.48;20.47;20.38;19.80;16.13;61.32
79335;SPS30;69634;52.122;5.406;2023-09-19T03:00:48;3.55;3.37;3.00;2.42;19.11;19.09;19.00;18.44;14.99;62.97
79335;SPS30;69634;52.122;5.406;2023-09-19T03:03:23;3.44;3.29;2.96;2.46;19.32;19.30;19.24;18.71;15.31;63.07
79335;SPS30;69634;52.122;5.406;2023-09-19T03:05:58;3.66;3.51;3.10;2.53;19.94;19.94;19.84;19.25;15.67;62.44
79335;SPS30;69634;52.122;5.406;2023-09-19T03:08:31;3.59;3.40;3.06;2.48;19.49;19.44;19.37;18.79;15.29;63.75
79335;SPS30;69634;52.122;5.406;2023-09-19T03:11:06;3.68;3.50;3.09;2.49;19.67;19.65;19.56;18.95;15.36;64.00
79335;SPS30;69634;52.122;5.406;2023-09-19T03:13:40;3.84;3.61;3.13;2.43;19.16;19.11;19.01;18.30;14.66;65.91
79335;SPS30;69634;52.122;5.406;2023-09-19T03:16:13;4.03;3.79;3.29;2.55;20.22;20.19;20.07;19.34;15.51;66.22
79335;SPS30;69634;52.122;5.406;2023-09-19T03:18:46;3.78;3.55;3.11;2.41;19.09;19.06;18.95;18.24;14.66;65.96
79335;SPS30;69634;52.122;5.406;2023-09-19T03:21:21;3.87;3.66;3.21;2.54;20.06;20.03;19.94;19.26;15.53;64.54
79335;SPS30;69634;52.122;5.406;2023-09-19T03:23:54;3.85;3.65;3.21;2.54;20.07;20.06;19.94;19.27;15.59;64.05
79335;SPS30;69634;52.122;5.406;2023-09-19T03:26:26;3.94;3.74;3.25;2.57;20.28;20.26;20.16;19.44;15.69;64.79
79335;SPS30;69634;52.122;5.406;2023-09-19T03:28:58;3.66;3.47;3.07;2.44;19.31;19.27;19.19;18.57;15.02;62.98
79335;SPS30;69634;52.122;5.406;2023-09-19T03:31:34;3.61;3.44;3.05;2.46;19.51;19.49;19.40;18.80;15.28;63.53
79335;SPS30;69634;52.122;5.406;2023-09-19T03:34:07;3.96;3.74;3.24;2.55;20.23;20.21;20.11;19.40;15.64;66.59
79335;SPS30;69634;52.122;5.406;2023-09-19T03:36:41;3.81;3.63;3.16;2.48;19.62;19.60;19.50;18.81;15.16;66.89
79335;SPS30;69634;52.122;5.406;2023-09-19T03:39:14;3.82;3.61;3.14;2.45;19.41;19.38;19.27;18.57;14.92;66.44
79335;SPS30;69634;52.122;5.406;2023-09-19T03:41:46;3.61;3.41;2.95;2.28;17.96;17.94;17.84;17.16;13.74;65.59
79335;SPS30;69634;52.122;5.406;2023-09-19T03:44:19;3.91;3.69;3.17;2.45;19.34;19.32;19.20;18.46;14.76;65.54
79335;SPS30;69634;52.122;5.406;2023-09-19T03:46:51;3.85;3.63;3.11;2.39;18.96;18.91;18.81;18.08;14.44;65.64
79335;SPS30;69634;52.122;5.406;2023-09-19T03:49:24;3.71;3.51;3.06;2.38;18.91;18.89;18.80;18.12;14.58;66.45
79335;SPS30;69634;52.122;5.406;2023-09-19T03:52:00;4.31;4.03;3.47;2.63;20.79;20.76;20.64;19.79;15.76;70.47
79335;SPS30;69634;52.122;5.406;2023-09-19T03:54:33;3.76;3.54;3.06;2.39;18.80;18.79;18.67;17.98;14.41;68.51
79335;SPS30;69634;52.122;5.406;2023-09-19T03:57:07;3.51;3.34;2.96;2.39;18.87;18.86;18.77;18.20;14.77;64.86
79335;SPS30;69634;52.122;5.406;2023-09-19T03:59:43;4.06;3.87;3.44;2.80;22.21;22.18;22.08;21.44;17.46;65.36
79335;SPS30;69634;52.122;5.406;2023-09-19T04:02:15;3.93;3.73;3.29;2.64;20.79;20.74;20.66;19.98;16.19;65.18
79335;SPS30;69634;52.122;5.406;2023-09-19T04:04:52;3.71;3.49;3.01;2.30;18.31;18.29;18.19;17.48;13.99;68.13
79335;SPS30;69634;52.122;5.406;2023-09-19T04:07:24;3.87;3.66;3.14;2.40;19.08;19.06;18.92;18.19;14.52;67.69
79335;SPS30;69634;52.122;5.406;2023-09-19T04:09:57;4.04;3.81;3.27;2.50;19.79;19.76;19.66;18.89;15.09;66.66
79335;SPS30;69634;52.122;5.406;2023-09-19T04:12:30;3.95;3.73;3.20;2.46;19.49;19.46;19.34;18.60;14.88;66.73
79335;SPS30;69634;52.122;5.406;2023-09-19T04:15:03;3.74;3.52;3.02;2.32;18.29;18.27;18.16;17.45;13.93;68.68
79335;SPS30;69634;52.122;5.406;2023-09-19T04:17:38;4.01;3.77;3.21;2.42;19.31;19.29;19.16;18.39;14.62;68.15
79335;SPS30;69634;52.122;5.406;2023-09-19T04:20:11;3.72;3.50;3.01;2.31;18.31;18.31;18.20;17.49;13.97;67.54
79335;SPS30;69634;52.122;5.406;2023-09-19T04:22:47;4.14;3.93;3.39;2.63;20.84;20.77;20.65;19.90;15.95;65.96
79335;SPS30;69634;52.122;5.406;2023-09-19T04:25:20;3.46;3.26;2.86;2.26;17.84;17.83;17.74;17.11;13.81;66.08
79335;SPS30;69634;52.122;5.406;2023-09-19T04:27:55;3.77;3.58;3.13;2.47;19.64;19.63;19.53;18.86;15.23;66.19
79335;SPS30;69634;52.122;5.406;2023-09-19T04:30:27;4.16;3.92;3.41;2.63;20.81;20.76;20.66;19.87;15.95;68.15
79335;SPS30;69634;52.122;5.406;2023-09-19T04:33:00;3.48;3.31;2.90;2.31;18.35;18.33;18.25;17.65;14.28;66.21
79335;SPS30;69634;52.122;5.406;2023-09-19T04:35:34;3.71;3.52;3.06;2.41;19.01;18.99;18.88;18.22;14.68;68.11
79335;SPS30;69634;52.122;5.406;2023-09-19T04:38:12;3.96;3.76;3.27;2.58;20.38;20.35;20.24;19.54;15.74;67.70
79335;SPS30;69634;52.122;5.406;2023-09-19T04:40:44;3.93;3.69;3.19;2.44;19.42;19.39;19.27;18.54;14.84;68.61
79335;SPS30;69634;52.122;5.406;2023-09-19T04:43:17;3.92;3.70;3.21;2.49;19.75;19.73;19.60;18.87;15.16;67.31
79335;SPS30;69634;52.122;5.406;2023-09-19T04:45:49;3.86;3.65;3.14;2.42;19.26;19.23;19.11;18.39;14.74;67.84
79335;SPS30;69634;52.122;5.406;2023-09-19T04:48:23;3.91;3.70;3.24;2.56;20.22;20.21;20.10;19.39;15.64;66.18
79335;SPS30;69634;52.122;5.406;2023-09-19T04:50:56;3.36;3.21;2.82;2.28;18.01;17.99;17.91;17.34;14.09;63.74
79335;SPS30;69634;52.122;5.406;2023-09-19T04:53:32;3.90;3.68;3.19;2.49;19.79;19.77;19.66;18.96;15.24;67.63
79335;SPS30;69634;52.122;5.406;2023-09-19T04:56:05;3.82;3.64;3.17;2.54;19.96;19.94;19.84;19.21;15.51;66.12
79335;SPS30;69634;52.122;5.406;2023-09-19T04:58:37;3.47;3.30;2.92;2.35;18.57;18.56;18.48;17.89;14.54;64.98
79335;SPS30;69634;52.122;5.406;2023-09-19T05:01:09;3.78;3.61;3.22;2.64;20.87;20.84;20.76;20.17;16.46;64.53
79335;SPS30;69634;52.122;5.406;2023-09-19T05:03:43;3.48;3.34;3.03;2.54;19.92;19.91;19.83;19.34;15.86;63.36
79335;SPS30;69634;52.122;5.406;2023-09-19T05:06:19;3.19;3.05;2.79;2.32;18.29;18.25;18.21;17.74;14.56;63.09
79335;SPS30;69634;52.122;5.406;2023-09-19T05:08:56;4.00;3.81;3.43;2.81;22.16;22.13;22.04;21.44;17.50;62.14
79335;SPS30;69634;52.122;5.406;2023-09-19T05:11:29;3.76;3.61;3.23;2.65;20.90;20.87;20.79;20.20;16.49;63.34
79335;SPS30;69634;52.122;5.406;2023-09-19T05:14:01;3.74;3.55;3.14;2.52;19.92;19.90;19.80;19.19;15.56;64.59
79335;SPS30;69634;52.122;5.406;2023-09-19T05:16:34;3.78;3.58;3.14;2.50;19.74;19.72;19.62;18.97;15.34;64.29
79335;SPS30;69634;52.122;5.406;2023-09-19T05:19:08;3.41;3.26;2.89;2.35;18.54;18.51;18.44;17.87;14.54;64.47
79335;SPS30;69634;52.122;5.406;2023-09-19T05:21:41;3.55;3.41;3.04;2.51;19.86;19.84;19.77;19.22;15.72;61.95
79335;SPS30;69634;52.122;5.406;2023-09-19T05:24:16;3.64;3.45;3.08;2.47;19.52;19.50;19.41;18.81;15.26;63.11
79335;SPS30;69634;52.122;5.406;2023-09-19T05:26:50;3.19;3.04;2.74;2.24;17.69;17.66;17.59;17.09;13.95;62.06
79335;SPS30;69634;52.122;5.406;2023-09-19T05:29:23;3.58;3.39;3.03;2.45;19.41;19.39;19.31;18.73;15.23;64.40
79335;SPS30;69634;52.122;5.406;2023-09-19T05:31:56;3.51;3.34;2.93;2.34;18.39;18.37;18.27;17.66;14.28;66.65
79335;SPS30;69634;52.122;5.406;2023-09-19T05:34:28;4.01;3.78;3.26;2.51;19.89;19.86;19.73;18.98;15.18;68.57
79335;SPS30;69634;52.122;5.406;2023-09-19T05:37:01;4.07;3.81;3.26;2.47;19.49;19.46;19.34;18.53;14.73;69.61
79335;SPS30;69634;52.122;5.406;2023-09-19T05:39:37;3.82;3.59;3.07;2.35;18.65;18.61;18.50;17.77;14.16;68.40
79335;SPS30;69634;52.122;5.406;2023-09-19T05:42:09;4.04;3.81;3.25;2.46;19.39;19.37;19.24;18.44;14.65;68.55
79335;SPS30;69634;52.122;5.406;2023-09-19T05:44:41;4.24;3.97;3.39;2.56;20.26;20.22;20.11;19.26;15.31;67.96
79335;SPS30;69634;52.122;5.406;2023-09-19T05:47:14;3.76;3.53;3.01;2.30;18.21;18.17;18.06;17.34;13.84;67.42
79335;SPS30;69634;52.122;5.406;2023-09-19T05:49:46;4.24;3.98;3.32;2.44;19.36;19.32;19.17;18.28;14.38;69.69
79335;SPS30;69634;52.122;5.406;2023-09-19T05:52:20;4.50;4.19;3.48;2.50;19.86;19.82;19.67;18.66;14.59;71.46
79335;SPS30;69634;52.122;5.406;2023-09-19T05:54:54;4.42;4.11;3.42;2.45;19.45;19.40;19.24;18.26;14.24;71.63
79335;SPS30;69634;52.122;5.406;2023-09-19T05:57:27;4.34;4.04;3.42;2.53;20.09;20.06;19.91;19.02;15.01;69.25
79335;SPS30;69634;52.122;5.406;2023-09-19T06:00:00;4.28;4.02;3.39;2.52;19.99;19.95;19.83;18.95;14.96;70.31
79335;SPS30;69634;52.122;5.406;2023-09-19T06:02:33;4.23;3.98;3.39;2.56;20.25;20.21;20.08;19.25;15.29;69.23
79335;SPS30;69634;52.122;5.406;2023-09-19T06:05:08;4.29;4.02;3.39;2.51;19.84;19.79;19.66;18.76;14.81;69.81
79335;SPS30;69634;52.122;5.406;2023-09-19T06:07:40;3.92;3.70;3.16;2.39;18.93;18.88;18.77;17.99;14.31;67.47
79335;SPS30;69634;52.122;5.406;2023-09-19T06:10:15;3.86;3.63;3.11;2.35;18.71;18.70;18.59;17.82;14.19;68.38
79335;SPS30;69634;52.122;5.406;2023-09-19T06:12:48;4.19;3.95;3.39;2.58;20.46;20.42;20.31;19.50;15.56;69.34
79335;SPS30;69634;52.122;5.406;2023-09-19T06:15:22;3.76;3.56;3.09;2.44;19.25;19.22;19.11;18.46;14.86;67.50
79335;SPS30;69634;52.122;5.406;2023-09-19T06:17:55;4.00;3.79;3.31;2.61;20.73;20.72;20.60;19.88;16.06;66.77
79335;SPS30;69634;52.122;5.406;2023-09-19T06:20:30;3.59;3.41;2.95;2.31;18.28;18.26;18.16;17.52;14.10;68.36
79335;SPS30;69634;52.122;5.406;2023-09-19T06:23:03;3.75;3.57;3.14;2.51;19.77;19.74;19.65;19.01;15.39;65.41
79335;SPS30;69634;52.122;5.406;2023-09-19T06:25:38;4.03;3.82;3.34;2.64;20.89;20.86;20.77;20.05;16.17;64.81
79335;SPS30;69634;52.122;5.406;2023-09-19T06:28:11;3.57;3.37;2.93;2.27;17.96;17.92;17.82;17.16;13.77;66.43
79335;SPS30;69634;52.122;5.406;2023-09-19T06:30:46;4.23;3.96;3.37;2.54;20.07;20.04;19.91;19.05;15.11;68.24
79335;SPS30;69634;52.122;5.406;2023-09-19T06:33:18;4.41;4.14;3.49;2.57;20.30;20.28;20.12;19.20;15.11;70.56
79335;SPS30;69634;52.122;5.406;2023-09-19T06:35:51;4.33;4.06;3.44;2.59;20.50;20.48;20.34;19.47;15.44;68.62
79335;SPS30;69634;52.122;5.406;2023-09-19T06:38:26;4.29;4.04;3.46;2.60;20.67;20.64;20.51;19.66;15.66;67.45
79335;SPS30;69634;52.122;5.406;2023-09-19T06:41:02;3.78;3.57;3.09;2.39;18.98;18.96;18.86;18.15;14.58;66.16
79335;SPS30;69634;52.122;5.406;2023-09-19T06:43:36;4.27;4.03;3.43;2.60;20.59;20.56;20.45;19.59;15.58;67.80
79335;SPS30;69634;52.122;5.406;2023-09-19T06:46:08;4.36;4.08;3.45;2.55;20.30;20.26;20.13;19.21;15.20;70.40
79335;SPS30;69634;52.122;5.406;2023-09-19T06:48:41;4.50;4.21;3.51;2.58;20.46;20.42;20.26;19.32;15.19;71.19
79335;SPS30;69634;52.122;5.406;2023-09-19T06:51:15;4.06;3.79;3.18;2.31;18.34;18.29;18.17;17.29;13.58;71.26
79335;SPS30;69634;52.122;5.406;2023-09-19T06:53:48;4.54;4.24;3.53;2.58;20.38;20.34;20.19;19.21;15.04;72.64
79335;SPS30;69634;52.122;5.406;2023-09-19T06:56:24;4.08;3.82;3.19;2.31;18.42;18.37;18.25;17.34;13.63;71.33
79335;SPS30;69634;52.122;5.406;2023-09-19T06:59:00;4.01;3.74;3.15;2.34;18.54;18.51;18.39;17.54;13.84;69.52
79335;SPS30;69634;52.122;5.406;2023-09-19T07:01:34;4.60;4.30;3.63;2.68;21.18;21.13;20.99;20.02;15.78;69.53
79335;SPS30;69634;52.122;5.406;2023-09-19T07:04:07;4.50;4.19;3.49;2.51;20.04;20.01;19.84;18.87;14.78;70.39
79335;SPS30;69634;52.122;5.406;2023-09-19T07:06:40;4.94;4.58;3.76;2.65;21.10;21.06;20.88;19.75;15.31;71.41
79335;SPS30;69634;52.122;5.406;2023-09-19T07:09:13;4.54;4.24;3.55;2.61;20.62;20.59;20.44;19.46;15.31;68.54
79335;SPS30;69634;52.122;5.406;2023-09-19T07:11:52;4.46;4.16;3.45;2.51;19.93;19.87;19.72;18.76;14.69;70.31
79335;SPS30;69634;52.122;5.406;2023-09-19T07:14:25;4.52;4.21;3.51;2.53;19.98;19.96;19.79;18.79;14.69;70.79
79335;SPS30;69634;52.122;5.406;2023-09-19T07:16:57;3.95;3.68;3.09;2.26;17.92;17.87;17.76;16.90;13.30;70.23
79335;SPS30;69634;52.122;5.406;2023-09-19T07:19:31;4.35;4.05;3.34;2.39;19.01;18.98;18.82;17.85;13.90;71.62
79335;SPS30;69634;52.122;5.406;2023-09-19T07:22:04;4.96;4.59;3.72;2.56;20.42;20.38;20.19;18.99;14.59;73.81
79335;SPS30;69634;52.122;5.406;2023-09-19T07:24:36;4.61;4.24;3.36;2.21;17.74;17.69;17.51;16.32;12.30;76.28
79335;SPS30;69634;52.122;5.406;2023-09-19T07:27:11;4.81;4.42;3.55;2.41;19.24;19.19;19.00;17.80;13.58;74.35
79335;SPS30;69634;52.122;5.406;2023-09-19T07:29:43;4.96;4.56;3.68;2.51;19.93;19.90;19.69;18.48;14.11;74.97
79335;SPS30;69634;52.122;5.406;2023-09-19T07:32:19;4.87;4.49;3.61;2.43;19.44;19.39;19.21;18.00;13.69;75.40
79335;SPS30;69634;52.122;5.406;2023-09-19T07:34:51;5.23;4.82;3.88;2.64;21.03;20.98;20.79;19.51;14.88;74.94
79335;SPS30;69634;52.122;5.406;2023-09-19T07:37:24;4.71;4.36;3.56;2.48;19.76;19.74;19.55;18.42;14.21;73.31
79335;SPS30;69634;52.122;5.406;2023-09-19T07:39:57;4.89;4.53;3.65;2.49;19.69;19.64;19.44;18.25;13.93;74.09
79335;SPS30;69634;52.122;5.406;2023-09-19T07:42:33;4.44;4.12;3.33;2.30;18.46;18.40;18.24;17.18;13.24;72.31
79335;SPS30;69634;52.122;5.406;2023-09-19T07:45:08;4.61;4.26;3.45;2.37;18.94;18.88;18.71;17.60;13.51;75.53
79335;SPS30;69634;52.122;5.406;2023-09-19T07:47:45;5.23;4.83;3.90;2.66;21.24;21.17;20.97;19.70;15.06;76.80
79335;SPS30;69634;52.122;5.406;2023-09-19T07:50:18;4.49;4.18;3.42;2.43;19.31;19.26;19.13;18.07;14.03;74.36
79335;SPS30;69634;52.122;5.406;2023-09-19T07:52:53;4.44;4.12;3.41;2.44;19.23;19.17;19.03;18.02;14.03;72.91
79335;SPS30;69634;52.122;5.406;2023-09-19T07:55:26;4.47;4.15;3.46;2.46;19.56;19.54;19.38;18.37;14.34;72.23
79335;SPS30;69634;52.122;5.406;2023-09-19T07:58:03;4.73;4.40;3.64;2.62;20.72;20.67;20.49;19.45;15.17;71.84
79335;SPS30;69634;52.122;5.406;2023-09-19T08:00:35;4.91;4.55;3.70;2.61;20.65;20.60;20.44;19.27;14.89;73.26
79335;SPS30;69634;52.122;5.406;2023-09-19T08:03:08;5.59;5.13;4.07;2.69;21.41;21.35;21.11;19.70;14.84;77.01
79335;SPS30;69634;52.122;5.406;2023-09-19T08:05:44;5.15;4.71;3.75;2.47;19.71;19.66;19.47;18.14;13.66;76.26
79335;SPS30;69634;52.122;5.406;2023-09-19T08:08:17;4.78;4.41;3.56;2.44;19.39;19.35;19.16;18.00;13.78;74.49
79335;SPS30;69634;52.122;5.406;2023-09-19T08:10:52;4.96;4.56;3.67;2.49;19.80;19.74;19.56;18.35;13.99;75.17
79335;SPS30;69634;52.122;5.406;2023-09-19T08:13:28;5.64;5.20;4.16;2.83;22.36;22.32;22.09;20.68;15.74;76.22
79335;SPS30;69634;52.122;5.406;2023-09-19T08:16:01;5.03;4.64;3.74;2.58;20.43;20.36;20.19;18.96;14.54;75.63
79335;SPS30;69634;52.122;5.406;2023-09-19T08:18:35;5.00;4.63;3.71;2.54;20.16;20.12;19.92;18.71;14.30;75.65
79335;SPS30;69634;52.122;5.406;2023-09-19T08:21:08;5.47;5.04;4.06;2.74;21.96;21.90;21.69;20.34;15.51;75.09
79335;SPS30;69634;52.122;5.406;2023-09-19T08:23:44;5.29;4.87;3.94;2.72;21.51;21.46;21.25;19.98;15.30;72.54
79335;SPS30;69634;52.122;5.406;2023-09-19T08:26:16;5.48;5.04;4.02;2.70;21.36;21.31;21.08;19.70;14.92;74.81
79335;SPS30;69634;52.122;5.406;2023-09-19T08:28:51;5.61;5.14;4.11;2.73;21.76;21.73;21.50;20.07;15.16;75.66
79335;SPS30;69634;52.122;5.406;2023-09-19T08:31:24;5.89;5.39;4.26;2.79;22.24;22.16;21.93;20.40;15.32;76.84
79335;SPS30;69634;52.122;5.406;2023-09-19T08:34:01;5.99;5.50;4.34;2.84;22.60;22.54;22.30;20.73;15.55;76.78
79335;SPS30;69634;52.122;5.406;2023-09-19T08:36:34;5.59;5.13;4.11;2.73;21.77;21.71;21.50;20.09;15.20;76.20
79335;SPS30;69634;52.122;5.406;2023-09-19T08:39:06;5.77;5.34;4.32;2.97;23.59;23.52;23.31;21.91;16.80;74.04
79335;SPS30;69634;52.122;5.406;2023-09-19T08:41:39;5.02;4.65;3.78;2.61;20.74;20.69;20.50;19.29;14.81;74.00
79335;SPS30;69634;52.122;5.406;2023-09-19T08:44:14;5.12;4.74;3.86;2.66;21.20;21.15;20.97;19.72;15.19;74.34
79335;SPS30;69634;52.122;5.406;2023-09-19T08:46:46;5.64;5.19;4.14;2.76;21.92;21.86;21.61;20.19;15.26;77.34
79335;SPS30;69634;52.122;5.406;2023-09-19T08:49:27;5.71;5.22;4.14;2.73;21.65;21.61;21.36;19.89;14.95;76.74
79335;SPS30;69634;52.122;5.406;2023-09-19T08:52:16;5.28;4.88;3.96;2.74;21.70;21.66;21.47;20.18;15.50;73.74
79335;SPS30;69634;52.122;5.406;2023-09-19T08:54:55;5.07;4.70;3.81;2.66;21.11;21.06;20.87;19.66;15.17;72.56
79335;SPS30;69634;52.122;5.406;2023-09-19T08:57:39;4.49;4.19;3.51;2.59;20.53;20.49;20.34;19.39;15.26;67.46
79335;SPS30;69634;52.122;5.406;2023-09-19T09:00:19;4.61;4.33;3.66;2.74;21.75;21.72;21.57;20.64;16.35;68.57
79335;SPS30;69634;52.122;5.406;2023-09-19T09:02:55;4.51;4.23;3.59;2.69;21.29;21.24;21.12;20.19;16.00;67.74
79335;SPS30;69634;52.122;5.406;2023-09-19T09:05:30;4.81;4.47;3.71;2.69;21.36;21.33;21.16;20.11;15.76;69.96
79335;SPS30;69634;52.122;5.406;2023-09-19T09:08:08;4.90;4.55;3.76;2.68;21.30;21.24;21.08;19.96;15.51;69.86
79335;SPS30;69634;52.122;5.406;2023-09-19T09:10:41;4.58;4.24;3.51;2.54;20.04;20.01;19.85;18.83;14.67;69.27
79335;SPS30;69634;52.122;5.406;2023-09-19T09:13:16;5.40;5.00;4.07;2.84;22.56;22.52;22.33;21.05;16.23;71.10
79335;SPS30;69634;52.122;5.406;2023-09-19T09:15:52;4.91;4.54;3.66;2.50;19.84;19.81;19.61;18.42;14.06;72.91
79335;SPS30;69634;52.122;5.406;2023-09-19T09:18:27;4.86;4.52;3.70;2.63;20.79;20.75;20.57;19.46;15.09;70.55
79335;SPS30;69634;52.122;5.406;2023-09-19T09:21:00;4.40;4.07;3.32;2.30;18.36;18.34;18.16;17.14;13.21;71.97
79335;SPS30;69634;52.122;5.406;2023-09-19T09:23:34;4.66;4.34;3.61;2.60;20.55;20.49;20.34;19.30;15.06;69.67
79335;SPS30;69634;52.122;5.406;2023-09-19T09:26:06;4.41;4.09;3.36;2.39;18.96;18.91;18.77;17.75;13.79;70.81
79335;SPS30;69634;52.122;5.406;2023-09-19T09:28:44;4.14;3.85;3.15;2.21;17.61;17.55;17.40;16.44;12.74;70.39
79335;SPS30;69634;52.122;5.406;2023-09-19T09:31:24;4.94;4.57;3.62;2.41;19.19;19.12;18.93;17.68;13.35;73.66
79335;SPS30;69634;52.122;5.406;2023-09-19T09:33:57;4.94;4.54;3.68;2.49;19.79;19.76;19.55;18.35;13.99;72.90
79335;SPS30;69634;52.122;5.406;2023-09-19T09:36:33;5.04;4.66;3.72;2.55;20.27;20.23;20.05;18.83;14.39;74.24